Startpagina
METAR-TAF:

METAR-TAF

Vliegvelden :

Internationale luchthaven van Nouakchott

Nouakchott, Mauritanië

breedte: 18-18-36N, lengte: 015-58-11W, hoogte: 3 m

Actueel weer

Dit bericht is 36 minuten geleden gemaakt, om 15:00 UTC
Wind 16 kt uit het noordnoordwesten
Temperatuur 28°C
Vochtigheid 66%
Druk 1011 hPa
Zicht: 8000 m

METAR: GQNO 171500Z 34016KT 8000 NSC 28/21 Q1011 NOSIG

Tijdstip: 15:36 (15:36 UTC)

Verwachting

Dit bericht is 4 uur en het 36 minuten geleden gemaakt, om 11:00 UTC
Verwachting geldig van 17 om 12 UTC tot 18 om 18 UTC
Wind 12 kt uit het noordnoordwesten
Zicht: 7000 m

TAF: GQNO 171100Z 1712/1818 34012KT 7000 NSC

Waarnemingen en weersverwachtingen van meer dan 4000 vliegvelden (METAR en TAF).

De beschikbare stations zijn de gele en rode punten op de kaart.

Ga met uw muis naar het station om de naam te zien.

Klik dan om waarnemingen en weersverwachtingen te zien.

kaart wijzigen: klik op de groene knoppen met een zwart kruis om in te zoomen, op de groene knop met een streepje om uit te zoomen of op de groene pijlen voor aangrenzende kaarten.


METAR-TAF: